sensor_id;sensor_type;location;lat;lon;timestamp;P1;durP1;ratioP1;P2;durP2;ratioP2
33188;SDS011;52601;53.070;10.600;2022-08-27T00:00:56;9.75;;;5.18;;
33188;SDS011;52601;53.070;10.600;2022-08-27T00:03:42;8.30;;;4.68;;
33188;SDS011;52601;53.070;10.600;2022-08-27T00:06:29;10.20;;;5.30;;
33188;SDS011;52601;53.070;10.600;2022-08-27T00:09:14;9.98;;;5.55;;
33188;SDS011;52601;53.070;10.600;2022-08-27T00:12:11;9.98;;;5.53;;
33188;SDS011;52601;53.070;10.600;2022-08-27T00:14:57;8.90;;;5.65;;
33188;SDS011;52601;53.070;10.600;2022-08-27T00:17:44;10.43;;;6.10;;
33188;SDS011;52601;53.070;10.600;2022-08-27T00:20:31;12.73;;;5.93;;
33188;SDS011;52601;53.070;10.600;2022-08-27T00:23:16;12.90;;;6.10;;
33188;SDS011;52601;53.070;10.600;2022-08-27T00:26:02;10.57;;;6.40;;
33188;SDS011;52601;53.070;10.600;2022-08-27T00:28:50;13.07;;;6.65;;
33188;SDS011;52601;53.070;10.600;2022-08-27T00:31:36;12.68;;;6.85;;
33188;SDS011;52601;53.070;10.600;2022-08-27T00:34:21;12.02;;;6.70;;
33188;SDS011;52601;53.070;10.600;2022-08-27T00:37:08;13.27;;;7.13;;
33188;SDS011;52601;53.070;10.600;2022-08-27T00:39:53;12.10;;;7.15;;
33188;SDS011;52601;53.070;10.600;2022-08-27T00:42:39;15.98;;;7.82;;
33188;SDS011;52601;53.070;10.600;2022-08-27T00:45:26;19.80;;;9.10;;
33188;SDS011;52601;53.070;10.600;2022-08-27T00:48:13;23.33;;;9.57;;
33188;SDS011;52601;53.070;10.600;2022-08-27T00:51:02;16.80;;;9.23;;
33188;SDS011;52601;53.070;10.600;2022-08-27T00:53:50;19.35;;;9.40;;
33188;SDS011;52601;53.070;10.600;2022-08-27T00:56:39;20.30;;;10.50;;
33188;SDS011;52601;53.070;10.600;2022-08-27T00:59:36;23.58;;;9.60;;
33188;SDS011;52601;53.070;10.600;2022-08-27T01:02:22;16.70;;;9.55;;
33188;SDS011;52601;53.070;10.600;2022-08-27T01:05:15;23.90;;;9.35;;
33188;SDS011;52601;53.070;10.600;2022-08-27T01:08:04;19.20;;;9.20;;
33188;SDS011;52601;53.070;10.600;2022-08-27T01:10:53;17.95;;;9.80;;
33188;SDS011;52601;53.070;10.600;2022-08-27T01:13:42;18.55;;;9.68;;
33188;SDS011;52601;53.070;10.600;2022-08-27T01:16:47;20.70;;;9.55;;
33188;SDS011;52601;53.070;10.600;2022-08-27T01:19:49;22.02;;;10.40;;
33188;SDS011;52601;53.070;10.600;2022-08-27T01:22:52;24.20;;;10.40;;
33188;SDS011;52601;53.070;10.600;2022-08-27T01:25:45;17.40;;;9.45;;
33188;SDS011;52601;53.070;10.600;2022-08-27T01:28:32;21.67;;;10.17;;
33188;SDS011;52601;53.070;10.600;2022-08-27T01:31:22;19.27;;;9.13;;
33188;SDS011;52601;53.070;10.600;2022-08-27T01:34:07;18.92;;;9.43;;
33188;SDS011;52601;53.070;10.600;2022-08-27T01:36:53;21.02;;;10.10;;
33188;SDS011;52601;53.070;10.600;2022-08-27T01:39:41;21.70;;;10.63;;
33188;SDS011;52601;53.070;10.600;2022-08-27T01:42:35;19.67;;;9.10;;
33188;SDS011;52601;53.070;10.600;2022-08-27T01:45:24;22.90;;;10.07;;
33188;SDS011;52601;53.070;10.600;2022-08-27T01:48:14;19.70;;;9.55;;
33188;SDS011;52601;53.070;10.600;2022-08-27T01:51:00;21.17;;;10.32;;
33188;SDS011;52601;53.070;10.600;2022-08-27T01:53:46;20.95;;;10.55;;
33188;SDS011;52601;53.070;10.600;2022-08-27T01:56:32;21.65;;;10.63;;
33188;SDS011;52601;53.070;10.600;2022-08-27T01:59:17;20.33;;;9.40;;
33188;SDS011;52601;53.070;10.600;2022-08-27T02:02:04;20.07;;;10.27;;
33188;SDS011;52601;53.070;10.600;2022-08-27T02:04:49;19.90;;;10.25;;
33188;SDS011;52601;53.070;10.600;2022-08-27T02:07:36;22.90;;;10.73;;
33188;SDS011;52601;53.070;10.600;2022-08-27T02:10:27;18.60;;;9.10;;
33188;SDS011;52601;53.070;10.600;2022-08-27T02:13:17;22.05;;;10.65;;
33188;SDS011;52601;53.070;10.600;2022-08-27T02:16:03;20.95;;;9.68;;
33188;SDS011;52601;53.070;10.600;2022-08-27T02:18:48;16.92;;;9.13;;
33188;SDS011;52601;53.070;10.600;2022-08-27T02:21:34;19.75;;;9.98;;
33188;SDS011;52601;53.070;10.600;2022-08-27T02:24:20;21.13;;;9.57;;
33188;SDS011;52601;53.070;10.600;2022-08-27T02:27:05;21.50;;;9.63;;
33188;SDS011;52601;53.070;10.600;2022-08-27T02:29:52;23.17;;;9.52;;
33188;SDS011;52601;53.070;10.600;2022-08-27T02:32:39;19.52;;;9.10;;
33188;SDS011;52601;53.070;10.600;2022-08-27T02:35:24;19.58;;;9.40;;
33188;SDS011;52601;53.070;10.600;2022-08-27T02:38:11;19.67;;;8.80;;
33188;SDS011;52601;53.070;10.600;2022-08-27T02:40:58;18.45;;;8.52;;
33188;SDS011;52601;53.070;10.600;2022-08-27T02:43:43;14.55;;;7.25;;
33188;SDS011;52601;53.070;10.600;2022-08-27T02:46:30;14.73;;;7.82;;
33188;SDS011;52601;53.070;10.600;2022-08-27T02:49:16;16.10;;;8.53;;
33188;SDS011;52601;53.070;10.600;2022-08-27T02:52:02;14.85;;;7.40;;
33188;SDS011;52601;53.070;10.600;2022-08-27T02:54:48;19.57;;;8.30;;
33188;SDS011;52601;53.070;10.600;2022-08-27T02:57:34;16.73;;;7.77;;
33188;SDS011;52601;53.070;10.600;2022-08-27T03:00:21;17.88;;;8.23;;
33188;SDS011;52601;53.070;10.600;2022-08-27T03:03:08;18.70;;;8.18;;
33188;SDS011;52601;53.070;10.600;2022-08-27T03:05:55;15.88;;;7.22;;
33188;SDS011;52601;53.070;10.600;2022-08-27T03:08:42;16.60;;;7.47;;
33188;SDS011;52601;53.070;10.600;2022-08-27T03:11:37;15.80;;;8.25;;
33188;SDS011;52601;53.070;10.600;2022-08-27T03:14:23;16.02;;;7.28;;
33188;SDS011;52601;53.070;10.600;2022-08-27T03:17:09;13.13;;;7.53;;
33188;SDS011;52601;53.070;10.600;2022-08-27T03:20:13;15.38;;;7.85;;
33188;SDS011;52601;53.070;10.600;2022-08-27T03:22:59;19.00;;;8.60;;
33188;SDS011;52601;53.070;10.600;2022-08-27T03:25:46;19.10;;;8.13;;
33188;SDS011;52601;53.070;10.600;2022-08-27T03:28:36;17.42;;;8.38;;
33188;SDS011;52601;53.070;10.600;2022-08-27T03:31:23;16.95;;;8.90;;
33188;SDS011;52601;53.070;10.600;2022-08-27T03:34:11;20.77;;;8.73;;
33188;SDS011;52601;53.070;10.600;2022-08-27T03:36:57;26.38;;;9.95;;
33188;SDS011;52601;53.070;10.600;2022-08-27T03:39:44;19.73;;;9.02;;
33188;SDS011;52601;53.070;10.600;2022-08-27T03:42:30;21.20;;;9.50;;
33188;SDS011;52601;53.070;10.600;2022-08-27T03:45:15;18.65;;;8.07;;
33188;SDS011;52601;53.070;10.600;2022-08-27T03:48:01;20.63;;;9.65;;
33188;SDS011;52601;53.070;10.600;2022-08-27T03:50:47;16.88;;;7.85;;
33188;SDS011;52601;53.070;10.600;2022-08-27T03:53:34;17.77;;;8.50;;
33188;SDS011;52601;53.070;10.600;2022-08-27T03:56:21;22.75;;;10.10;;
33188;SDS011;52601;53.070;10.600;2022-08-27T03:59:07;26.83;;;9.10;;
33188;SDS011;52601;53.070;10.600;2022-08-27T04:01:53;18.73;;;9.27;;
33188;SDS011;52601;53.070;10.600;2022-08-27T04:04:38;14.25;;;8.20;;
33188;SDS011;52601;53.070;10.600;2022-08-27T04:07:24;17.23;;;8.13;;
33188;SDS011;52601;53.070;10.600;2022-08-27T04:10:10;24.08;;;9.30;;
33188;SDS011;52601;53.070;10.600;2022-08-27T04:12:56;23.58;;;10.07;;
33188;SDS011;52601;53.070;10.600;2022-08-27T04:15:42;19.67;;;8.97;;
33188;SDS011;52601;53.070;10.600;2022-08-27T04:18:29;17.45;;;7.97;;
33188;SDS011;52601;53.070;10.600;2022-08-27T04:21:14;17.23;;;8.15;;
33188;SDS011;52601;53.070;10.600;2022-08-27T04:24:00;21.53;;;9.20;;
33188;SDS011;52601;53.070;10.600;2022-08-27T04:26:46;19.73;;;8.68;;
33188;SDS011;52601;53.070;10.600;2022-08-27T04:29:31;15.93;;;8.35;;
33188;SDS011;52601;53.070;10.600;2022-08-27T04:32:17;25.47;;;9.33;;
33188;SDS011;52601;53.070;10.600;2022-08-27T04:35:03;21.92;;;9.02;;
33188;SDS011;52601;53.070;10.600;2022-08-27T04:37:50;24.35;;;10.00;;
33188;SDS011;52601;53.070;10.600;2022-08-27T04:40:36;17.20;;;8.77;;
33188;SDS011;52601;53.070;10.600;2022-08-27T04:43:40;21.43;;;9.70;;
33188;SDS011;52601;53.070;10.600;2022-08-27T04:46:27;21.25;;;9.82;;
33188;SDS011;52601;53.070;10.600;2022-08-27T04:49:14;22.92;;;8.85;;
33188;SDS011;52601;53.070;10.600;2022-08-27T04:52:01;20.90;;;9.48;;
33188;SDS011;52601;53.070;10.600;2022-08-27T04:54:49;24.35;;;8.98;;
33188;SDS011;52601;53.070;10.600;2022-08-27T04:57:34;25.75;;;10.20;;
33188;SDS011;52601;53.070;10.600;2022-08-27T05:00:22;19.27;;;9.43;;
33188;SDS011;52601;53.070;10.600;2022-08-27T05:03:07;21.75;;;9.02;;
33188;SDS011;52601;53.070;10.600;2022-08-27T05:05:58;19.92;;;9.93;;
33188;SDS011;52601;53.070;10.600;2022-08-27T05:08:48;20.87;;;8.50;;
33188;SDS011;52601;53.070;10.600;2022-08-27T05:11:34;22.67;;;8.68;;
33188;SDS011;52601;53.070;10.600;2022-08-27T05:14:19;16.67;;;7.75;;
33188;SDS011;52601;53.070;10.600;2022-08-27T05:17:06;20.33;;;8.27;;
33188;SDS011;52601;53.070;10.600;2022-08-27T05:19:51;16.52;;;8.32;;
33188;SDS011;52601;53.070;10.600;2022-08-27T05:22:37;21.50;;;9.33;;
33188;SDS011;52601;53.070;10.600;2022-08-27T05:25:24;16.63;;;8.05;;
33188;SDS011;52601;53.070;10.600;2022-08-27T05:28:11;21.58;;;8.27;;
33188;SDS011;52601;53.070;10.600;2022-08-27T05:31:03;20.60;;;9.27;;
33188;SDS011;52601;53.070;10.600;2022-08-27T05:33:50;19.37;;;8.47;;
33188;SDS011;52601;53.070;10.600;2022-08-27T05:36:37;18.57;;;8.47;;
33188;SDS011;52601;53.070;10.600;2022-08-27T05:39:33;18.23;;;8.30;;
33188;SDS011;52601;53.070;10.600;2022-08-27T05:42:18;16.58;;;8.10;;
33188;SDS011;52601;53.070;10.600;2022-08-27T05:45:04;20.40;;;8.43;;
33188;SDS011;52601;53.070;10.600;2022-08-27T05:47:50;24.00;;;9.38;;
33188;SDS011;52601;53.070;10.600;2022-08-27T05:50:35;14.13;;;7.93;;
33188;SDS011;52601;53.070;10.600;2022-08-27T05:53:22;18.48;;;8.13;;
33188;SDS011;52601;53.070;10.600;2022-08-27T05:56:20;21.15;;;9.10;;
33188;SDS011;52601;53.070;10.600;2022-08-27T05:59:08;20.77;;;8.77;;
33188;SDS011;52601;53.070;10.600;2022-08-27T06:02:12;23.67;;;9.95;;
33188;SDS011;52601;53.070;10.600;2022-08-27T06:04:57;21.13;;;9.32;;
33188;SDS011;52601;53.070;10.600;2022-08-27T06:07:43;22.17;;;9.38;;
33188;SDS011;52601;53.070;10.600;2022-08-27T06:10:29;18.42;;;8.55;;
33188;SDS011;52601;53.070;10.600;2022-08-27T06:13:14;22.07;;;9.17;;
33188;SDS011;52601;53.070;10.600;2022-08-27T06:16:01;24.05;;;9.60;;
33188;SDS011;52601;53.070;10.600;2022-08-27T06:18:50;19.35;;;9.30;;
33188;SDS011;52601;53.070;10.600;2022-08-27T06:21:35;17.58;;;9.30;;
33188;SDS011;52601;53.070;10.600;2022-08-27T06:24:22;20.30;;;9.55;;
33188;SDS011;52601;53.070;10.600;2022-08-27T06:27:11;19.20;;;9.15;;
33188;SDS011;52601;53.070;10.600;2022-08-27T06:29:59;21.60;;;9.75;;
33188;SDS011;52601;53.070;10.600;2022-08-27T06:32:44;22.15;;;8.85;;
33188;SDS011;52601;53.070;10.600;2022-08-27T06:35:32;21.02;;;9.15;;
33188;SDS011;52601;53.070;10.600;2022-08-27T06:38:19;19.60;;;8.90;;
33188;SDS011;52601;53.070;10.600;2022-08-27T06:41:05;17.13;;;8.68;;
33188;SDS011;52601;53.070;10.600;2022-08-27T06:44:08;23.40;;;10.88;;
33188;SDS011;52601;53.070;10.600;2022-08-27T06:46:55;18.00;;;9.37;;
33188;SDS011;52601;53.070;10.600;2022-08-27T06:49:40;19.90;;;8.70;;
33188;SDS011;52601;53.070;10.600;2022-08-27T06:52:30;20.25;;;8.43;;
33188;SDS011;52601;53.070;10.600;2022-08-27T06:55:16;22.90;;;9.25;;
33188;SDS011;52601;53.070;10.600;2022-08-27T06:58:01;20.02;;;9.18;;
33188;SDS011;52601;53.070;10.600;2022-08-27T07:00:47;17.20;;;8.43;;
33188;SDS011;52601;53.070;10.600;2022-08-27T07:03:33;27.38;;;10.18;;
33188;SDS011;52601;53.070;10.600;2022-08-27T07:06:19;19.40;;;9.50;;
33188;SDS011;52601;53.070;10.600;2022-08-27T07:09:04;22.92;;;9.75;;
33188;SDS011;52601;53.070;10.600;2022-08-27T07:11:50;18.88;;;9.10;;
33188;SDS011;52601;53.070;10.600;2022-08-27T07:14:36;23.05;;;10.00;;
33188;SDS011;52601;53.070;10.600;2022-08-27T07:17:22;18.15;;;8.85;;
33188;SDS011;52601;53.070;10.600;2022-08-27T07:20:08;18.58;;;9.38;;
33188;SDS011;52601;53.070;10.600;2022-08-27T07:22:54;19.15;;;9.38;;
33188;SDS011;52601;53.070;10.600;2022-08-27T07:25:43;17.73;;;8.25;;
33188;SDS011;52601;53.070;10.600;2022-08-27T07:28:28;17.73;;;9.43;;
33188;SDS011;52601;53.070;10.600;2022-08-27T07:31:19;20.70;;;9.07;;
33188;SDS011;52601;53.070;10.600;2022-08-27T07:34:06;19.35;;;8.70;;
33188;SDS011;52601;53.070;10.600;2022-08-27T07:36:52;18.77;;;9.05;;
33188;SDS011;52601;53.070;10.600;2022-08-27T07:39:37;18.88;;;8.20;;
33188;SDS011;52601;53.070;10.600;2022-08-27T07:42:22;20.35;;;9.90;;
33188;SDS011;52601;53.070;10.600;2022-08-27T07:45:27;19.08;;;9.15;;
33188;SDS011;52601;53.070;10.600;2022-08-27T07:48:14;26.35;;;8.80;;
33188;SDS011;52601;53.070;10.600;2022-08-27T07:51:01;18.95;;;8.43;;
33188;SDS011;52601;53.070;10.600;2022-08-27T07:53:49;17.02;;;8.38;;
33188;SDS011;52601;53.070;10.600;2022-08-27T07:56:35;17.90;;;8.20;;
33188;SDS011;52601;53.070;10.600;2022-08-27T07:59:20;18.50;;;8.90;;
33188;SDS011;52601;53.070;10.600;2022-08-27T08:02:08;19.08;;;7.80;;
33188;SDS011;52601;53.070;10.600;2022-08-27T08:04:54;17.33;;;9.05;;
33188;SDS011;52601;53.070;10.600;2022-08-27T08:07:40;20.53;;;8.80;;
33188;SDS011;52601;53.070;10.600;2022-08-27T08:10:25;21.13;;;8.77;;
33188;SDS011;52601;53.070;10.600;2022-08-27T08:13:11;21.47;;;8.20;;
33188;SDS011;52601;53.070;10.600;2022-08-27T08:15:57;17.00;;;8.57;;
33188;SDS011;52601;53.070;10.600;2022-08-27T08:18:43;16.47;;;8.53;;
33188;SDS011;52601;53.070;10.600;2022-08-27T08:21:28;16.92;;;8.65;;
33188;SDS011;52601;53.070;10.600;2022-08-27T08:24:14;19.15;;;9.13;;
33188;SDS011;52601;53.070;10.600;2022-08-27T08:26:59;17.67;;;8.40;;
33188;SDS011;52601;53.070;10.600;2022-08-27T08:29:51;13.17;;;8.30;;
33188;SDS011;52601;53.070;10.600;2022-08-27T08:32:36;20.27;;;7.97;;
33188;SDS011;52601;53.070;10.600;2022-08-27T08:35:23;15.75;;;8.20;;
33188;SDS011;52601;53.070;10.600;2022-08-27T08:38:08;17.27;;;7.50;;
33188;SDS011;52601;53.070;10.600;2022-08-27T08:40:54;15.05;;;7.55;;
33188;SDS011;52601;53.070;10.600;2022-08-27T08:43:43;18.65;;;8.35;;
33188;SDS011;52601;53.070;10.600;2022-08-27T08:46:39;17.20;;;7.57;;
33188;SDS011;52601;53.070;10.600;2022-08-27T08:49:33;16.98;;;7.43;;
33188;SDS011;52601;53.070;10.600;2022-08-27T08:52:24;16.88;;;7.93;;
33188;SDS011;52601;53.070;10.600;2022-08-27T09:01:15;15.82;;;7.60;;
33188;SDS011;52601;53.070;10.600;2022-08-27T09:04:06;12.05;;;7.57;;
33188;SDS011;52601;53.070;10.600;2022-08-27T09:06:57;14.50;;;6.97;;
33188;SDS011;52601;53.070;10.600;2022-08-27T09:12:59;14.40;;;7.35;;
33188;SDS011;52601;53.070;10.600;2022-08-27T09:15:47;16.05;;;7.05;;
33188;SDS011;52601;53.070;10.600;2022-08-27T09:18:34;11.05;;;6.55;;
33188;SDS011;52601;53.070;10.600;2022-08-27T09:21:30;10.50;;;6.35;;
33188;SDS011;52601;53.070;10.600;2022-08-27T09:24:56;13.88;;;7.28;;
33188;SDS011;52601;53.070;10.600;2022-08-27T09:27:50;14.07;;;7.68;;
33188;SDS011;52601;53.070;10.600;2022-08-27T09:30:40;16.05;;;8.05;;
33188;SDS011;52601;53.070;10.600;2022-08-27T09:33:27;17.48;;;8.57;;
33188;SDS011;52601;53.070;10.600;2022-08-27T09:36:33;16.27;;;8.35;;
33188;SDS011;52601;53.070;10.600;2022-08-27T09:39:18;14.15;;;7.72;;
33188;SDS011;52601;53.070;10.600;2022-08-27T09:42:05;13.27;;;7.20;;
33188;SDS011;52601;53.070;10.600;2022-08-27T09:44:51;12.23;;;7.40;;
33188;SDS011;52601;53.070;10.600;2022-08-27T09:47:41;14.85;;;7.45;;
33188;SDS011;52601;53.070;10.600;2022-08-27T09:50:51;15.25;;;7.13;;
33188;SDS011;52601;53.070;10.600;2022-08-27T09:53:58;15.60;;;7.33;;
33188;SDS011;52601;53.070;10.600;2022-08-27T09:56:46;15.50;;;7.47;;
33188;SDS011;52601;53.070;10.600;2022-08-27T09:59:35;12.43;;;7.35;;
33188;SDS011;52601;53.070;10.600;2022-08-27T10:02:24;13.77;;;7.53;;
33188;SDS011;52601;53.070;10.600;2022-08-27T10:05:15;15.05;;;7.22;;
33188;SDS011;52601;53.070;10.600;2022-08-27T10:08:23;23.05;;;7.45;;
33188;SDS011;52601;53.070;10.600;2022-08-27T10:11:29;11.82;;;6.70;;
33188;SDS011;52601;53.070;10.600;2022-08-27T10:14:22;11.13;;;5.73;;
33188;SDS011;52601;53.070;10.600;2022-08-27T10:17:18;10.35;;;5.78;;
33188;SDS011;52601;53.070;10.600;2022-08-27T10:23:34;10.13;;;5.82;;
33188;SDS011;52601;53.070;10.600;2022-08-27T10:26:30;13.17;;;6.63;;
33188;SDS011;52601;53.070;10.600;2022-08-27T10:29:25;15.75;;;7.72;;
33188;SDS011;52601;53.070;10.600;2022-08-27T10:35:48;16.20;;;8.25;;
33188;SDS011;52601;53.070;10.600;2022-08-27T10:38:49;11.38;;;6.75;;
33188;SDS011;52601;53.070;10.600;2022-08-27T10:41:58;13.75;;;6.43;;
33188;SDS011;52601;53.070;10.600;2022-08-27T10:45:02;12.52;;;5.70;;
33188;SDS011;52601;53.070;10.600;2022-08-27T10:48:17;10.18;;;5.63;;
33188;SDS011;52601;53.070;10.600;2022-08-27T10:51:14;7.93;;;4.63;;
33188;SDS011;52601;53.070;10.600;2022-08-27T11:01:05;9.90;;;5.07;;
33188;SDS011;52601;53.070;10.600;2022-08-27T11:04:02;9.50;;;4.72;;
33188;SDS011;52601;53.070;10.600;2022-08-27T11:07:01;9.63;;;5.10;;
33188;SDS011;52601;53.070;10.600;2022-08-27T11:09:53;11.77;;;5.90;;
33188;SDS011;52601;53.070;10.600;2022-08-27T11:12:43;10.97;;;5.77;;
33188;SDS011;52601;53.070;10.600;2022-08-27T11:15:33;12.80;;;6.60;;
33188;SDS011;52601;53.070;10.600;2022-08-27T11:18:41;16.97;;;7.60;;
33188;SDS011;52601;53.070;10.600;2022-08-27T11:21:45;17.67;;;7.13;;
33188;SDS011;52601;53.070;10.600;2022-08-27T11:24:46;12.18;;;7.28;;
33188;SDS011;52601;53.070;10.600;2022-08-27T11:27:54;12.50;;;6.68;;
33188;SDS011;52601;53.070;10.600;2022-08-27T11:31:00;11.80;;;6.43;;
33188;SDS011;52601;53.070;10.600;2022-08-27T11:34:04;11.93;;;6.28;;
33188;SDS011;52601;53.070;10.600;2022-08-27T11:43:28;11.03;;;6.23;;
33188;SDS011;52601;53.070;10.600;2022-08-27T11:46:22;8.75;;;5.28;;
33188;SDS011;52601;53.070;10.600;2022-08-27T11:49:10;10.00;;;5.00;;
33188;SDS011;52601;53.070;10.600;2022-08-27T11:52:07;9.00;;;5.57;;
33188;SDS011;52601;53.070;10.600;2022-08-27T11:54:56;13.75;;;5.72;;
33188;SDS011;52601;53.070;10.600;2022-08-27T11:58:02;14.57;;;5.70;;
33188;SDS011;52601;53.070;10.600;2022-08-27T12:00:50;10.52;;;5.97;;
33188;SDS011;52601;53.070;10.600;2022-08-27T12:03:39;10.03;;;5.37;;
33188;SDS011;52601;53.070;10.600;2022-08-27T12:06:27;11.90;;;5.97;;
33188;SDS011;52601;53.070;10.600;2022-08-27T12:09:23;9.93;;;5.25;;
33188;SDS011;52601;53.070;10.600;2022-08-27T12:12:17;9.38;;;6.00;;
33188;SDS011;52601;53.070;10.600;2022-08-27T12:15:24;11.38;;;4.85;;
33188;SDS011;52601;53.070;10.600;2022-08-27T12:27:42;7.47;;;4.65;;
33188;SDS011;52601;53.070;10.600;2022-08-27T12:30:40;9.23;;;4.75;;
33188;SDS011;52601;53.070;10.600;2022-08-27T12:33:40;8.13;;;4.28;;
33188;SDS011;52601;53.070;10.600;2022-08-27T12:36:28;7.15;;;4.07;;
33188;SDS011;52601;53.070;10.600;2022-08-27T12:39:21;7.22;;;4.18;;
33188;SDS011;52601;53.070;10.600;2022-08-27T12:42:14;6.15;;;3.95;;
33188;SDS011;52601;53.070;10.600;2022-08-27T12:45:02;7.50;;;3.67;;
33188;SDS011;52601;53.070;10.600;2022-08-27T12:47:49;6.28;;;3.97;;
33188;SDS011;52601;53.070;10.600;2022-08-27T12:50:36;6.25;;;4.05;;
33188;SDS011;52601;53.070;10.600;2022-08-27T12:53:38;6.05;;;3.88;;
33188;SDS011;52601;53.070;10.600;2022-08-27T13:03:19;7.18;;;3.55;;
33188;SDS011;52601;53.070;10.600;2022-08-27T13:06:43;12.75;;;4.68;;
33188;SDS011;52601;53.070;10.600;2022-08-27T13:09:29;9.52;;;4.15;;
33188;SDS011;52601;53.070;10.600;2022-08-27T13:12:17;10.63;;;4.40;;
33188;SDS011;52601;53.070;10.600;2022-08-27T13:15:06;5.22;;;3.35;;
33188;SDS011;52601;53.070;10.600;2022-08-27T13:17:58;7.87;;;3.53;;
33188;SDS011;52601;53.070;10.600;2022-08-27T13:20:47;9.73;;;3.97;;
33188;SDS011;52601;53.070;10.600;2022-08-27T13:23:40;11.10;;;4.60;;
33188;SDS011;52601;53.070;10.600;2022-08-27T13:26:30;9.82;;;4.60;;
33188;SDS011;52601;53.070;10.600;2022-08-27T13:29:21;8.85;;;4.50;;
33188;SDS011;52601;53.070;10.600;2022-08-27T13:32:08;10.27;;;5.32;;
33188;SDS011;52601;53.070;10.600;2022-08-27T13:34:58;10.27;;;5.22;;
33188;SDS011;52601;53.070;10.600;2022-08-27T13:37:47;11.05;;;5.05;;
33188;SDS011;52601;53.070;10.600;2022-08-27T13:40:36;9.13;;;5.40;;
33188;SDS011;52601;53.070;10.600;2022-08-27T13:43:37;8.60;;;4.82;;
33188;SDS011;52601;53.070;10.600;2022-08-27T13:46:27;11.88;;;5.65;;
33188;SDS011;52601;53.070;10.600;2022-08-27T13:49:21;12.27;;;5.55;;
33188;SDS011;52601;53.070;10.600;2022-08-27T13:55:04;7.05;;;4.68;;
33188;SDS011;52601;53.070;10.600;2022-08-27T13:57:53;9.63;;;4.75;;
33188;SDS011;52601;53.070;10.600;2022-08-27T14:00:39;11.50;;;5.47;;
33188;SDS011;52601;53.070;10.600;2022-08-27T14:03:30;8.75;;;4.53;;
33188;SDS011;52601;53.070;10.600;2022-08-27T14:06:25;7.70;;;4.25;;
33188;SDS011;52601;53.070;10.600;2022-08-27T14:09:24;7.43;;;4.03;;
33188;SDS011;52601;53.070;10.600;2022-08-27T14:12:17;6.75;;;4.20;;
33188;SDS011;52601;53.070;10.600;2022-08-27T14:18:05;8.30;;;4.05;;
33188;SDS011;52601;53.070;10.600;2022-08-27T14:20:52;13.60;;;4.30;;
33188;SDS011;52601;53.070;10.600;2022-08-27T14:23:38;8.52;;;4.20;;
33188;SDS011;52601;53.070;10.600;2022-08-27T14:26:25;7.22;;;3.72;;
33188;SDS011;52601;53.070;10.600;2022-08-27T14:29:11;8.80;;;4.22;;
33188;SDS011;52601;53.070;10.600;2022-08-27T14:31:56;7.93;;;4.47;;
33188;SDS011;52601;53.070;10.600;2022-08-27T14:34:42;9.85;;;4.53;;
33188;SDS011;52601;53.070;10.600;2022-08-27T14:37:28;10.75;;;4.65;;
33188;SDS011;52601;53.070;10.600;2022-08-27T14:40:13;7.77;;;4.30;;
33188;SDS011;52601;53.070;10.600;2022-08-27T14:42:59;7.77;;;4.07;;
33188;SDS011;52601;53.070;10.600;2022-08-27T14:45:45;7.28;;;3.58;;
33188;SDS011;52601;53.070;10.600;2022-08-27T14:48:32;6.82;;;3.08;;
33188;SDS011;52601;53.070;10.600;2022-08-27T14:51:22;6.20;;;3.10;;
33188;SDS011;52601;53.070;10.600;2022-08-27T14:54:10;6.65;;;3.15;;
33188;SDS011;52601;53.070;10.600;2022-08-27T14:56:56;4.00;;;2.13;;
33188;SDS011;52601;53.070;10.600;2022-08-27T14:59:43;5.00;;;2.70;;
33188;SDS011;52601;53.070;10.600;2022-08-27T15:02:28;4.40;;;2.30;;
33188;SDS011;52601;53.070;10.600;2022-08-27T15:05:15;3.67;;;1.92;;
33188;SDS011;52601;53.070;10.600;2022-08-27T15:08:02;4.72;;;1.90;;
33188;SDS011;52601;53.070;10.600;2022-08-27T15:10:48;4.07;;;1.90;;
33188;SDS011;52601;53.070;10.600;2022-08-27T15:13:34;3.78;;;1.70;;
33188;SDS011;52601;53.070;10.600;2022-08-27T15:16:26;5.57;;;2.42;;
33188;SDS011;52601;53.070;10.600;2022-08-27T15:19:12;3.95;;;1.88;;
33188;SDS011;52601;53.070;10.600;2022-08-27T15:22:15;9.07;;;2.40;;
33188;SDS011;52601;53.070;10.600;2022-08-27T15:25:03;2.25;;;1.17;;
33188;SDS011;52601;53.070;10.600;2022-08-27T15:27:50;4.88;;;1.23;;
33188;SDS011;52601;53.070;10.600;2022-08-27T15:30:36;4.05;;;1.40;;
33188;SDS011;52601;53.070;10.600;2022-08-27T15:33:22;4.20;;;1.27;;
33188;SDS011;52601;53.070;10.600;2022-08-27T15:36:07;2.75;;;1.27;;
33188;SDS011;52601;53.070;10.600;2022-08-27T15:38:53;4.65;;;1.30;;
33188;SDS011;52601;53.070;10.600;2022-08-27T15:41:39;3.07;;;0.97;;
33188;SDS011;52601;53.070;10.600;2022-08-27T15:44:46;3.25;;;1.50;;
33188;SDS011;52601;53.070;10.600;2022-08-27T15:47:34;2.95;;;1.02;;
33188;SDS011;52601;53.070;10.600;2022-08-27T15:50:19;2.58;;;1.10;;
33188;SDS011;52601;53.070;10.600;2022-08-27T15:53:06;3.97;;;1.60;;
33188;SDS011;52601;53.070;10.600;2022-08-27T15:55:53;3.13;;;1.35;;
33188;SDS011;52601;53.070;10.600;2022-08-27T15:58:39;3.83;;;1.80;;
33188;SDS011;52601;53.070;10.600;2022-08-27T16:01:26;3.22;;;1.10;;
33188;SDS011;52601;53.070;10.600;2022-08-27T16:04:13;1.88;;;1.02;;
33188;SDS011;52601;53.070;10.600;2022-08-27T16:06:59;2.37;;;1.10;;
33188;SDS011;52601;53.070;10.600;2022-08-27T16:09:45;4.05;;;1.23;;
33188;SDS011;52601;53.070;10.600;2022-08-27T16:12:30;1.23;;;0.70;;
33188;SDS011;52601;53.070;10.600;2022-08-27T16:15:15;4.25;;;1.10;;
33188;SDS011;52601;53.070;10.600;2022-08-27T16:18:01;7.65;;;1.55;;
33188;SDS011;52601;53.070;10.600;2022-08-27T16:20:48;3.75;;;1.15;;
33188;SDS011;52601;53.070;10.600;2022-08-27T16:23:34;3.45;;;1.30;;
33188;SDS011;52601;53.070;10.600;2022-08-27T16:26:20;2.70;;;0.95;;
33188;SDS011;52601;53.070;10.600;2022-08-27T16:29:06;3.10;;;0.90;;
33188;SDS011;52601;53.070;10.600;2022-08-27T16:31:52;4.07;;;1.10;;
33188;SDS011;52601;53.070;10.600;2022-08-27T16:34:45;3.75;;;0.93;;
33188;SDS011;52601;53.070;10.600;2022-08-27T16:37:40;4.18;;;0.95;;
33188;SDS011;52601;53.070;10.600;2022-08-27T16:40:26;4.80;;;0.85;;
33188;SDS011;52601;53.070;10.600;2022-08-27T16:43:14;6.30;;;1.75;;
33188;SDS011;52601;53.070;10.600;2022-08-27T16:46:05;3.38;;;1.30;;
33188;SDS011;52601;53.070;10.600;2022-08-27T16:48:51;2.78;;;0.95;;
33188;SDS011;52601;53.070;10.600;2022-08-27T16:51:56;5.57;;;0.93;;
33188;SDS011;52601;53.070;10.600;2022-08-27T16:54:41;4.63;;;1.23;;
33188;SDS011;52601;53.070;10.600;2022-08-27T16:57:26;1.92;;;0.98;;
33188;SDS011;52601;53.070;10.600;2022-08-27T17:00:12;5.95;;;1.10;;
33188;SDS011;52601;53.070;10.600;2022-08-27T17:02:58;2.03;;;1.00;;
33188;SDS011;52601;53.070;10.600;2022-08-27T17:05:44;4.77;;;1.50;;
33188;SDS011;52601;53.070;10.600;2022-08-27T17:08:33;3.47;;;0.90;;
33188;SDS011;52601;53.070;10.600;2022-08-27T17:11:32;3.50;;;0.77;;
33188;SDS011;52601;53.070;10.600;2022-08-27T17:14:19;2.70;;;1.20;;
33188;SDS011;52601;53.070;10.600;2022-08-27T17:17:05;4.28;;;1.23;;
33188;SDS011;52601;53.070;10.600;2022-08-27T17:19:50;2.22;;;1.23;;
33188;SDS011;52601;53.070;10.600;2022-08-27T17:22:36;2.20;;;0.88;;
33188;SDS011;52601;53.070;10.600;2022-08-27T17:25:21;1.80;;;0.75;;